Time;durP1;ratioP1;P1;durP2;ratioP2;P2;SDS_P1;SDS_P2;PMS_P1;PMS_P2;Temp;Humidity;BMP_temperature;BMP_pressure;BME280_temperature;BME280_humidity;BME280_pressure;Samples;Min_cycle;Max_cycle;Signal;HPM_P1;HPM_P2
2023/09/25 00:01:50;;;;;;;2.10;0.83;;;;;;;;;;5045710;28;20515;-66
2023/09/25 00:04:17;;;;;;;2.10;0.93;;;;;;;;;;5051984;28;20482;-67
2023/09/25 00:06:45;;;;;;;2.70;1.47;;;;;;;;;;5041544;28;20484;-66
2023/09/25 00:09:13;;;;;;;1.93;0.83;;;;;;;;;;5048115;28;20478;-66
2023/09/25 00:11:40;;;;;;;2.13;0.90;;;;;;;;;;5036019;28;20953;-67
2023/09/25 00:14:07;;;;;;;4.70;1.60;;;;;;;;;;5040298;28;20481;-66
2023/09/25 00:16:34;;;;;;;2.50;1.30;;;;;;;;;;5042453;28;20893;-66
2023/09/25 00:19:01;;;;;;;2.47;0.80;;;;;;;;;;5050577;28;20792;-66
2023/09/25 00:21:30;;;;;;;3.20;0.90;;;;;;;;;;5046831;28;20997;-65
2023/09/25 00:23:57;;;;;;;3.70;1.43;;;;;;;;;;5031577;28;20512;-65
2023/09/25 00:26:25;;;;;;;2.50;1.23;;;;;;;;;;5033149;28;20436;-65
2023/09/25 00:28:53;;;;;;;2.00;0.93;;;;;;;;;;5035896;28;20999;-67
2023/09/25 00:31:21;;;;;;;2.23;1.07;;;;;;;;;;5031757;28;20529;-66
2023/09/25 00:33:49;;;;;;;2.00;0.70;;;;;;;;;;5041416;28;20446;-66
2023/09/25 00:36:17;;;;;;;2.30;0.80;;;;;;;;;;5043237;28;20439;-67
2023/09/25 00:38:44;;;;;;;3.70;1.43;;;;;;;;;;5039632;28;20951;-66
2023/09/25 00:41:11;;;;;;;2.60;1.20;;;;;;;;;;5037544;28;20832;-66
2023/09/25 00:43:40;;;;;;;4.00;1.40;;;;;;;;;;5038536;28;20465;-65
2023/09/25 00:46:07;;;;;;;2.53;1.00;;;;;;;;;;5033143;28;20534;-64
2023/09/25 00:48:35;;;;;;;2.53;1.07;;;;;;;;;;5043118;28;20525;-66
2023/09/25 00:51:04;;;;;;;2.73;0.90;;;;;;;;;;5052161;28;20849;-65
2023/09/25 00:53:32;;;;;;;2.10;0.87;;;;;;;;;;5039939;28;20461;-65
2023/09/25 00:55:59;;;;;;;2.10;0.80;;;;;;;;;;5038602;28;20483;-66
2023/09/25 00:58:26;;;;;;;2.70;1.50;;;;;;;;;;5037615;28;20459;-66
2023/09/25 01:00:55;;;;;;;2.57;1.23;;;;;;;;;;5037383;28;20466;-65
2023/09/25 01:03:22;;;;;;;3.27;1.53;;;;;;;;;;5049275;28;20475;-65
2023/09/25 01:05:49;;;;;;;2.07;0.83;;;;;;;;;;5042584;28;20482;-65
2023/09/25 01:08:17;;;;;;;3.10;1.23;;;;;;;;;;5042708;28;20518;-66
2023/09/25 01:10:45;;;;;;;2.33;1.00;;;;;;;;;;5045607;28;20462;-66
2023/09/25 01:13:12;;;;;;;3.53;1.30;;;;;;;;;;5039226;28;20458;-66
2023/09/25 01:15:39;;;;;;;3.17;1.40;;;;;;;;;;5045319;28;20479;-66
2023/09/25 01:18:08;;;;;;;1.87;0.80;;;;;;;;;;5050303;28;20815;-66
2023/09/25 01:20:35;;;;;;;2.20;1.10;;;;;;;;;;5050828;28;20462;-66
2023/09/25 01:23:04;;;;;;;2.70;1.40;;;;;;;;;;5045930;28;21016;-66
2023/09/25 01:25:31;;;;;;;3.10;1.30;;;;;;;;;;5033066;28;20504;-66
2023/09/25 01:27:58;;;;;;;2.33;1.10;;;;;;;;;;5033042;28;20471;-66
2023/09/25 01:30:25;;;;;;;3.93;1.30;;;;;;;;;;5045454;28;20458;-66
2023/09/25 01:32:53;;;;;;;2.30;1.03;;;;;;;;;;5046513;28;20454;-66
2023/09/25 01:35:23;;;;;;;2.77;1.40;;;;;;;;;;5036780;28;20483;-66
2023/09/25 01:37:50;;;;;;;3.30;1.20;;;;;;;;;;5032236;28;20463;-65
2023/09/25 01:40:19;;;;;;;2.20;1.10;;;;;;;;;;5035864;28;20468;-66
2023/09/25 01:42:46;;;;;;;4.10;1.03;;;;;;;;;;5045425;28;20457;-66
2023/09/25 01:45:16;;;;;;;3.10;1.37;;;;;;;;;;5038456;28;20478;-66
2023/09/25 01:47:48;;;;;;;2.30;0.83;;;;;;;;;;5031765;28;20479;-67
2023/09/25 01:50:16;;;;;;;2.40;1.47;;;;;;;;;;5038253;28;20451;-66
2023/09/25 01:52:43;;;;;;;2.30;0.90;;;;;;;;;;5032564;28;20677;-66
2023/09/25 01:55:10;;;;;;;2.70;1.10;;;;;;;;;;5042386;28;20481;-66
2023/09/25 01:57:39;;;;;;;2.43;1.00;;;;;;;;;;5049070;28;20461;-71
2023/09/25 02:00:09;;;;;;;2.20;0.80;;;;;;;;;;5037083;28;20501;-65
2023/09/25 02:02:36;;;;;;;2.87;1.53;;;;;;;;;;5042792;28;20472;-65
2023/09/25 02:05:04;;;;;;;2.60;1.13;;;;;;;;;;5050694;28;20996;-67
2023/09/25 02:07:31;;;;;;;2.20;1.10;;;;;;;;;;5044735;28;20478;-65
2023/09/25 02:09:58;;;;;;;7.20;1.83;;;;;;;;;;5041275;28;20451;-66
2023/09/25 02:12:25;;;;;;;2.93;1.40;;;;;;;;;;5050534;28;20458;-66
2023/09/25 02:14:54;;;;;;;3.33;1.43;;;;;;;;;;5045157;28;20473;-67
2023/09/25 02:17:22;;;;;;;2.13;0.70;;;;;;;;;;5033993;28;20928;-67
2023/09/25 02:19:50;;;;;;;5.30;1.67;;;;;;;;;;5033367;28;20470;-65
2023/09/25 02:22:17;;;;;;;4.63;1.53;;;;;;;;;;5036144;28;20549;-65
2023/09/25 02:24:44;;;;;;;3.00;1.30;;;;;;;;;;5032402;28;20474;-65
2023/09/25 02:27:12;;;;;;;2.00;0.80;;;;;;;;;;5035545;28;20456;-66
2023/09/25 02:29:39;;;;;;;5.30;2.23;;;;;;;;;;5046461;28;20439;-66
2023/09/25 02:32:07;;;;;;;2.13;0.90;;;;;;;;;;5038410;28;20521;-67
2023/09/25 02:34:34;;;;;;;3.00;1.53;;;;;;;;;;5049169;28;20990;-65
2023/09/25 02:37:02;;;;;;;3.13;1.83;;;;;;;;;;5043919;28;20880;-67
2023/09/25 02:39:29;;;;;;;2.67;1.00;;;;;;;;;;5044916;28;20833;-65
2023/09/25 02:41:56;;;;;;;2.00;0.80;;;;;;;;;;5121806;22;20476;-64
2023/09/25 02:44:23;;;;;;;1.90;0.80;;;;;;;;;;5071781;28;21014;-65
2023/09/25 02:46:50;;;;;;;3.03;1.47;;;;;;;;;;5071826;28;20464;-65
2023/09/25 02:49:18;;;;;;;2.60;1.27;;;;;;;;;;5074988;28;20511;-65
2023/09/25 02:51:45;;;;;;;6.10;1.23;;;;;;;;;;5074098;28;20453;-64
2023/09/25 02:54:12;;;;;;;2.63;1.10;;;;;;;;;;5065770;28;20473;-64
2023/09/25 02:56:39;;;;;;;3.27;1.40;;;;;;;;;;5073986;28;20476;-66
2023/09/25 02:59:07;;;;;;;5.93;1.40;;;;;;;;;;5074633;28;20430;-66
2023/09/25 03:01:35;;;;;;;2.20;0.90;;;;;;;;;;5073216;28;20514;-65
2023/09/25 03:04:02;;;;;;;4.93;1.90;;;;;;;;;;5074054;28;20652;-65
2023/09/25 03:06:30;;;;;;;6.23;1.30;;;;;;;;;;5072838;28;20799;-65
2023/09/25 03:08:57;;;;;;;2.77;1.10;;;;;;;;;;5073418;28;20523;-66
2023/09/25 03:11:24;;;;;;;2.23;0.93;;;;;;;;;;5072886;28;20515;-65
2023/09/25 03:13:52;;;;;;;2.67;1.03;;;;;;;;;;5072995;28;21037;-66
2023/09/25 03:16:19;;;;;;;2.50;1.03;;;;;;;;;;5068570;28;20457;-66
2023/09/25 03:18:46;;;;;;;2.97;1.30;;;;;;;;;;5071606;28;20795;-65
2023/09/25 03:21:14;;;;;;;2.90;1.43;;;;;;;;;;5072970;28;20556;-65
2023/09/25 03:23:43;;;;;;;4.73;0.97;;;;;;;;;;5065130;28;20802;-64
2023/09/25 03:26:16;;;;;;;2.33;1.13;;;;;;;;;;5070573;28;20556;-65
2023/09/25 03:28:43;;;;;;;3.50;1.20;;;;;;;;;;5073614;28;20477;-65
2023/09/25 03:31:11;;;;;;;2.07;1.03;;;;;;;;;;5074234;28;20498;-65
2023/09/25 03:33:38;;;;;;;2.77;1.00;;;;;;;;;;5080301;28;20519;-65
2023/09/25 03:36:05;;;;;;;4.10;1.33;;;;;;;;;;5072945;28;20811;-65
2023/09/25 03:38:32;;;;;;;4.77;1.20;;;;;;;;;;5072816;28;20457;-65
2023/09/25 03:41:01;;;;;;;4.83;2.10;;;;;;;;;;5068350;28;20476;-65
2023/09/25 03:43:28;;;;;;;3.90;1.80;;;;;;;;;;5072842;28;20476;-65
2023/09/25 03:45:56;;;;;;;2.77;1.27;;;;;;;;;;5071381;28;20481;-65
2023/09/25 03:48:23;;;;;;;3.40;1.53;;;;;;;;;;5070624;28;20477;-65
2023/09/25 03:50:50;;;;;;;2.90;1.67;;;;;;;;;;5073497;28;20457;-65
2023/09/25 03:53:17;;;;;;;5.07;1.67;;;;;;;;;;5071900;28;20540;-65
2023/09/25 03:55:45;;;;;;;3.13;1.00;;;;;;;;;;5070186;28;20552;-66
2023/09/25 03:58:13;;;;;;;5.70;1.50;;;;;;;;;;5073014;28;20457;-65
2023/09/25 04:00:41;;;;;;;2.00;0.80;;;;;;;;;;5072765;28;20480;-66
2023/09/25 04:03:08;;;;;;;3.03;1.10;;;;;;;;;;5071974;28;20458;-65
2023/09/25 04:05:35;;;;;;;3.27;1.00;;;;;;;;;;5071016;28;20895;-65
2023/09/25 04:08:03;;;;;;;5.67;1.77;;;;;;;;;;5073335;28;20567;-65
2023/09/25 04:10:30;;;;;;;2.30;1.00;;;;;;;;;;5066856;28;20489;-66
2023/09/25 04:12:58;;;;;;;8.97;1.97;;;;;;;;;;5070425;28;20461;-66
2023/09/25 04:15:27;;;;;;;4.10;1.10;;;;;;;;;;5072636;28;20477;-66
2023/09/25 04:17:54;;;;;;;2.33;0.87;;;;;;;;;;5072016;28;20866;-65
2023/09/25 04:20:25;;;;;;;3.27;1.50;;;;;;;;;;5070945;28;20457;-66
2023/09/25 04:22:52;;;;;;;3.20;1.40;;;;;;;;;;5071677;28;20537;-66
2023/09/25 04:25:20;;;;;;;2.53;0.97;;;;;;;;;;5066872;28;20524;-66
2023/09/25 04:27:47;;;;;;;2.30;1.00;;;;;;;;;;5066958;28;20464;-66
2023/09/25 04:30:15;;;;;;;3.47;1.13;;;;;;;;;;5071561;28;20507;-65
2023/09/25 04:32:44;;;;;;;3.03;1.30;;;;;;;;;;5071090;28;20479;-65
2023/09/25 04:35:12;;;;;;;3.20;1.53;;;;;;;;;;5060305;28;20488;-65
2023/09/25 04:37:39;;;;;;;3.10;1.13;;;;;;;;;;5070617;28;20458;-65
2023/09/25 04:40:13;;;;;;;3.20;1.50;;;;;;;;;;5070123;28;20829;-66
2023/09/25 04:42:41;;;;;;;2.83;1.07;;;;;;;;;;5070476;28;20453;-66
2023/09/25 04:45:12;;;;;;;2.43;1.00;;;;;;;;;;5071966;28;20534;-66
2023/09/25 04:47:39;;;;;;;2.10;0.70;;;;;;;;;;5061087;28;20457;-65
2023/09/25 04:50:09;;;;;;;2.97;0.97;;;;;;;;;;5068876;28;20849;-65
2023/09/25 04:52:36;;;;;;;4.30;1.20;;;;;;;;;;5070142;28;20550;-65
2023/09/25 04:55:05;;;;;;;5.13;1.97;;;;;;;;;;5070405;28;20484;-66
2023/09/25 04:57:32;;;;;;;3.80;1.70;;;;;;;;;;5072606;28;20491;-66
2023/09/25 04:59:59;;;;;;;3.20;0.80;;;;;;;;;;5070656;28;20507;-63
2023/09/25 05:02:27;;;;;;;2.50;1.27;;;;;;;;;;5071114;28;20491;-64
2023/09/25 05:04:56;;;;;;;2.70;1.07;;;;;;;;;;5071254;28;20481;-63
2023/09/25 05:07:25;;;;;;;2.00;0.90;;;;;;;;;;5065566;28;20453;-64
2023/09/25 05:09:52;;;;;;;8.43;1.87;;;;;;;;;;5070548;28;20473;-63
2023/09/25 05:12:19;;;;;;;2.33;1.17;;;;;;;;;;5071555;28;20465;-64
2023/09/25 05:14:46;;;;;;;3.37;1.53;;;;;;;;;;5070716;28;20946;-64
2023/09/25 05:17:13;;;;;;;3.80;1.10;;;;;;;;;;5065442;28;20455;-64
2023/09/25 05:19:40;;;;;;;2.27;0.70;;;;;;;;;;5069923;28;20460;-64
2023/09/25 05:22:07;;;;;;;3.40;2.00;;;;;;;;;;5069282;28;20506;-64
2023/09/25 05:24:35;;;;;;;3.33;2.00;;;;;;;;;;5070955;28;20938;-65
2023/09/25 05:27:02;;;;;;;2.97;1.90;;;;;;;;;;5066730;28;20554;-64
2023/09/25 05:29:30;;;;;;;3.33;2.37;;;;;;;;;;5070181;28;20473;-63
2023/09/25 05:31:57;;;;;;;3.07;1.70;;;;;;;;;;5069953;28;20464;-64
2023/09/25 05:34:24;;;;;;;4.90;1.90;;;;;;;;;;5071263;28;20541;-63
2023/09/25 05:36:51;;;;;;;3.60;1.37;;;;;;;;;;5070645;28;20476;-64
2023/09/25 05:39:18;;;;;;;3.23;1.60;;;;;;;;;;5067404;28;20818;-64
2023/09/25 05:41:47;;;;;;;4.10;1.83;;;;;;;;;;5069753;28;20457;-64
2023/09/25 05:44:14;;;;;;;2.67;1.10;;;;;;;;;;5064913;28;20477;-65
2023/09/25 05:46:41;;;;;;;3.17;1.07;;;;;;;;;;5071316;28;20951;-64
2023/09/25 05:49:09;;;;;;;4.57;1.57;;;;;;;;;;5069994;28;20477;-65
2023/09/25 05:51:37;;;;;;;6.03;1.63;;;;;;;;;;5071486;28;20453;-64
2023/09/25 05:54:05;;;;;;;4.33;1.87;;;;;;;;;;5069634;28;21293;-63
2023/09/25 05:56:32;;;;;;;4.40;1.50;;;;;;;;;;5071184;28;20437;-63
2023/09/25 05:59:02;;;;;;;2.67;1.27;;;;;;;;;;5069544;28;20507;-63
2023/09/25 06:01:29;;;;;;;3.30;1.37;;;;;;;;;;5070123;28;20453;-64
2023/09/25 06:03:57;;;;;;;3.47;2.20;;;;;;;;;;5069325;28;20491;-63
2023/09/25 06:06:24;;;;;;;3.30;1.33;;;;;;;;;;5080257;28;20830;-63
2023/09/25 06:08:52;;;;;;;4.07;1.70;;;;;;;;;;5069387;28;20481;-63
2023/09/25 06:11:19;;;;;;;3.80;1.30;;;;;;;;;;5068271;28;20453;-64
2023/09/25 06:13:46;;;;;;;4.10;1.90;;;;;;;;;;5071282;28;20935;-63
2023/09/25 06:16:16;;;;;;;2.40;1.10;;;;;;;;;;5068843;28;20492;-64
2023/09/25 06:18:43;;;;;;;4.53;1.67;;;;;;;;;;5070571;28;20449;-63
2023/09/25 06:21:13;;;;;;;2.60;1.27;;;;;;;;;;5069311;28;20571;-64
2023/09/25 06:23:40;;;;;;;3.97;1.77;;;;;;;;;;5067038;28;20457;-65
2023/09/25 06:26:07;;;;;;;4.10;1.90;;;;;;;;;;5070453;28;20481;-63
2023/09/25 06:28:34;;;;;;;3.50;1.77;;;;;;;;;;5069822;28;20453;-63
2023/09/25 06:31:01;;;;;;;5.40;1.57;;;;;;;;;;5070670;28;20456;-65
2023/09/25 06:33:30;;;;;;;2.93;1.20;;;;;;;;;;5071150;28;20705;-64
2023/09/25 06:35:57;;;;;;;3.40;1.83;;;;;;;;;;5068537;28;20480;-62
2023/09/25 06:38:24;;;;;;;5.20;1.50;;;;;;;;;;5062426;28;20461;-64
2023/09/25 06:40:51;;;;;;;3.97;1.27;;;;;;;;;;5070011;28;20492;-64
2023/09/25 06:43:18;;;;;;;3.10;1.30;;;;;;;;;;5067875;28;20453;-64
2023/09/25 06:45:45;;;;;;;5.90;1.43;;;;;;;;;;5058061;28;20515;-64
2023/09/25 06:48:13;;;;;;;3.87;1.70;;;;;;;;;;5073211;28;20453;-64
2023/09/25 06:50:41;;;;;;;2.63;1.10;;;;;;;;;;5070594;28;20477;-63
2023/09/25 06:53:08;;;;;;;4.40;1.77;;;;;;;;;;5068632;28;20461;-63
2023/09/25 06:55:37;;;;;;;3.10;1.80;;;;;;;;;;5070249;28;20530;-64
2023/09/25 06:58:04;;;;;;;3.33;1.20;;;;;;;;;;5066065;28;20498;-64
2023/09/25 07:00:32;;;;;;;3.50;1.67;;;;;;;;;;5074726;28;20434;-64
2023/09/25 07:03:00;;;;;;;7.07;2.63;;;;;;;;;;5077402;28;20456;-65
2023/09/25 07:05:28;;;;;;;3.90;1.77;;;;;;;;;;5070232;28;20572;-63
2023/09/25 07:07:56;;;;;;;2.60;1.27;;;;;;;;;;5070335;28;20502;-63
2023/09/25 07:10:24;;;;;;;4.03;1.43;;;;;;;;;;5069814;28;20555;-64
2023/09/25 07:12:51;;;;;;;2.93;1.50;;;;;;;;;;5070817;28;20465;-64
2023/09/25 07:15:20;;;;;;;4.43;2.47;;;;;;;;;;5073362;28;20480;-63
2023/09/25 07:17:47;;;;;;;4.23;1.90;;;;;;;;;;5063165;28;20453;-63
2023/09/25 07:20:14;;;;;;;4.00;1.70;;;;;;;;;;5072615;28;20487;-63
2023/09/25 07:22:42;;;;;;;4.83;1.77;;;;;;;;;;5071910;28;20464;-63
2023/09/25 07:25:10;;;;;;;6.83;2.30;;;;;;;;;;5071653;28;20600;-63
2023/09/25 07:27:38;;;;;;;2.83;1.50;;;;;;;;;;5069582;28;20466;-63
2023/09/25 07:30:06;;;;;;;2.87;1.27;;;;;;;;;;5073395;28;20468;-63
2023/09/25 07:32:33;;;;;;;4.20;1.60;;;;;;;;;;5073024;28;20838;-63
2023/09/25 07:35:04;;;;;;;3.50;1.30;;;;;;;;;;5072603;28;20485;-64
2023/09/25 07:37:31;;;;;;;3.00;1.40;;;;;;;;;;5068211;28;21038;-63
2023/09/25 07:39:58;;;;;;;2.97;1.60;;;;;;;;;;5073557;28;20445;-63
2023/09/25 07:42:27;;;;;;;2.70;1.20;;;;;;;;;;5071942;28;20888;-63
2023/09/25 07:44:54;;;;;;;2.90;1.40;;;;;;;;;;5073035;28;20464;-63
2023/09/25 07:47:21;;;;;;;3.20;1.50;;;;;;;;;;5079573;28;21000;-63
2023/09/25 07:49:48;;;;;;;2.47;1.37;;;;;;;;;;5079751;28;20481;-63
2023/09/25 07:52:20;;;;;;;4.07;1.97;;;;;;;;;;5072960;28;20805;-64
2023/09/25 07:54:48;;;;;;;4.13;2.00;;;;;;;;;;5073809;28;20466;-64
2023/09/25 07:57:15;;;;;;;4.97;1.67;;;;;;;;;;5073758;28;20441;-64
2023/09/25 07:59:44;;;;;;;4.20;2.07;;;;;;;;;;5073541;28;20910;-64
2023/09/25 08:02:16;;;;;;;3.53;1.87;;;;;;;;;;5073717;28;20441;-64
2023/09/25 08:04:43;;;;;;;3.60;1.70;;;;;;;;;;5072253;28;20454;-64
2023/09/25 08:07:10;;;;;;;3.50;1.57;;;;;;;;;;5073530;28;20444;-64
2023/09/25 08:09:37;;;;;;;6.40;1.90;;;;;;;;;;5072171;28;20484;-64
2023/09/25 08:12:05;;;;;;;3.10;1.73;;;;;;;;;;5073895;28;20457;-64
2023/09/25 08:14:32;;;;;;;2.60;1.80;;;;;;;;;;5073404;28;20469;-64
2023/09/25 08:17:00;;;;;;;3.80;1.80;;;;;;;;;;5073142;28;20445;-64
2023/09/25 08:19:27;;;;;;;4.30;2.43;;;;;;;;;;5073066;28;20445;-64
2023/09/25 08:21:54;;;;;;;2.87;1.67;;;;;;;;;;5073110;28;20560;-64
2023/09/25 08:24:22;;;;;;;4.60;2.50;;;;;;;;;;5072494;28;20453;-64
2023/09/25 08:26:49;;;;;;;5.33;2.60;;;;;;;;;;5071444;28;20461;-64
2023/09/25 08:29:16;;;;;;;3.50;2.00;;;;;;;;;;5072574;28;20445;-64
2023/09/25 08:31:43;;;;;;;4.70;2.40;;;;;;;;;;5072363;28;20493;-64
2023/09/25 08:34:12;;;;;;;4.70;2.00;;;;;;;;;;5072234;28;20582;-64
2023/09/25 08:36:39;;;;;;;5.60;2.73;;;;;;;;;;5072955;28;20449;-64
2023/09/25 08:39:11;;;;;;;6.73;2.50;;;;;;;;;;5071554;28;20461;-64
2023/09/25 08:41:41;;;;;;;7.97;2.20;;;;;;;;;;5064315;28;20472;-63
2023/09/25 08:44:09;;;;;;;3.80;2.30;;;;;;;;;;5066569;28;20485;-63
2023/09/25 08:46:36;;;;;;;4.33;2.10;;;;;;;;;;5072619;28;20442;-63
2023/09/25 08:49:03;;;;;;;3.37;2.10;;;;;;;;;;5071834;28;20488;-63
2023/09/25 08:51:35;;;;;;;9.63;2.77;;;;;;;;;;5071345;28;20493;-63
2023/09/25 08:54:03;;;;;;;5.07;2.40;;;;;;;;;;5068627;28;20453;-63
2023/09/25 08:56:31;;;;;;;3.80;1.97;;;;;;;;;;5069594;28;20449;-64
2023/09/25 08:59:01;;;;;;;2.83;1.70;;;;;;;;;;5063183;28;20457;-64
2023/09/25 09:01:28;;;;;;;3.60;1.80;;;;;;;;;;5071325;28;20461;-64
2023/09/25 09:03:55;;;;;;;2.60;1.40;;;;;;;;;;5070259;28;20542;-64
2023/09/25 09:06:22;;;;;;;2.30;1.40;;;;;;;;;;5071886;28;20495;-64
2023/09/25 09:08:52;;;;;;;4.20;1.90;;;;;;;;;;5071301;28;20970;-64
2023/09/25 09:11:21;;;;;;;4.43;1.77;;;;;;;;;;5070329;28;20943;-64
2023/09/25 09:13:48;;;;;;;2.80;1.87;;;;;;;;;;5070073;28;20518;-63
2023/09/25 09:16:16;;;;;;;3.07;1.60;;;;;;;;;;5068344;28;20472;-64
2023/09/25 09:18:43;;;;;;;3.50;1.17;;;;;;;;;;5070960;28;20453;-64
2023/09/25 09:21:21;;;;;;;1.97;1.20;;;;;;;;;;5062467;28;20449;-63
2023/09/25 09:23:48;;;;;;;3.87;2.40;;;;;;;;;;5071208;28;20834;-64
2023/09/25 09:26:17;;;;;;;2.80;1.33;;;;;;;;;;5071158;28;20457;-63
2023/09/25 09:28:46;;;;;;;3.73;1.10;;;;;;;;;;5069106;28;20489;-64
2023/09/25 09:31:17;;;;;;;3.83;1.33;;;;;;;;;;5071057;28;20485;-62
2023/09/25 09:33:44;;;;;;;3.87;1.97;;;;;;;;;;5068300;28;20540;-62
2023/09/25 09:36:12;;;;;;;2.50;1.43;;;;;;;;;;5070287;28;20983;-63
2023/09/25 09:38:40;;;;;;;2.23;1.30;;;;;;;;;;5068939;28;20947;-62
2023/09/25 09:41:07;;;;;;;3.70;1.47;;;;;;;;;;5071336;28;20445;-63
2023/09/25 09:43:36;;;;;;;5.23;1.97;;;;;;;;;;5069218;28;20468;-63
2023/09/25 09:46:03;;;;;;;4.13;1.73;;;;;;;;;;5071169;28;20483;-63
2023/09/25 09:48:31;;;;;;;3.70;1.70;;;;;;;;;;5070972;28;20449;-62
2023/09/25 09:51:00;;;;;;;4.00;1.80;;;;;;;;;;5071648;28;20477;-63
2023/09/25 09:53:28;;;;;;;4.63;1.67;;;;;;;;;;5069932;28;20464;-62
2023/09/25 09:55:55;;;;;;;3.17;1.47;;;;;;;;;;5068952;28;20509;-62
2023/09/25 09:58:24;;;;;;;3.57;1.33;;;;;;;;;;5070620;28;20540;-63
2023/09/25 10:00:52;;;;;;;3.30;1.40;;;;;;;;;;5071002;28;20514;-63
2023/09/25 10:03:19;;;;;;;3.80;1.40;;;;;;;;;;5070207;28;20445;-64
2023/09/25 10:05:47;;;;;;;3.67;1.70;;;;;;;;;;5070757;28;20477;-63
2023/09/25 10:08:14;;;;;;;3.10;1.47;;;;;;;;;;5070823;28;20458;-62
2023/09/25 10:10:43;;;;;;;3.30;1.87;;;;;;;;;;5070585;28;20484;-62
2023/09/25 10:13:13;;;;;;;3.30;1.70;;;;;;;;;;5068752;28;20898;-62
2023/09/25 10:15:41;;;;;;;3.23;1.73;;;;;;;;;;5070189;28;20508;-63
2023/09/25 10:18:09;;;;;;;2.23;1.30;;;;;;;;;;5070443;28;20468;-63
2023/09/25 10:20:38;;;;;;;3.37;1.43;;;;;;;;;;5068880;28;20471;-63
2023/09/25 10:23:09;;;;;;;3.50;1.33;;;;;;;;;;5070167;28;20481;-63
2023/09/25 10:25:46;;;;;;;3.00;1.40;;;;;;;;;;5070578;28;20469;-63
2023/09/25 10:28:16;;;;;;;3.40;1.37;;;;;;;;;;5069676;28;20457;-63
2023/09/25 10:30:43;;;;;;;3.10;1.33;;;;;;;;;;5070068;28;20863;-63
2023/09/25 10:33:12;;;;;;;2.90;1.60;;;;;;;;;;5070204;28;20449;-63
2023/09/25 10:35:43;;;;;;;3.87;1.50;;;;;;;;;;5070252;28;20874;-63
2023/09/25 10:38:11;;;;;;;3.40;1.63;;;;;;;;;;5071207;28;20852;-63
2023/09/25 10:40:38;;;;;;;4.13;1.40;;;;;;;;;;5069933;28;20453;-63
2023/09/25 10:43:05;;;;;;;1.77;1.10;;;;;;;;;;5071004;28;20448;-64
2023/09/25 10:45:34;;;;;;;3.30;1.93;;;;;;;;;;5069906;28;20508;-63
2023/09/25 10:48:01;;;;;;;3.20;1.10;;;;;;;;;;5073498;28;20475;-63
2023/09/25 10:50:29;;;;;;;2.60;1.53;;;;;;;;;;5073720;28;20480;-63
2023/09/25 10:52:57;;;;;;;3.10;1.67;;;;;;;;;;5074290;28;20445;-63
2023/09/25 10:55:24;;;;;;;3.57;1.67;;;;;;;;;;5072302;28;20482;-64
2023/09/25 10:57:51;;;;;;;3.90;1.50;;;;;;;;;;5073851;28;20465;-64
2023/09/25 11:00:19;;;;;;;3.43;1.47;;;;;;;;;;5073424;28;20456;-64
2023/09/25 11:02:47;;;;;;;2.87;1.40;;;;;;;;;;5074501;28;20472;-64
2023/09/25 11:05:14;;;;;;;2.80;1.60;;;;;;;;;;5072778;28;20883;-62
2023/09/25 11:07:42;;;;;;;2.33;1.53;;;;;;;;;;5072954;28;20461;-64
2023/09/25 11:10:13;;;;;;;3.30;1.70;;;;;;;;;;5073264;28;20491;-63
2023/09/25 11:12:40;;;;;;;2.90;1.40;;;;;;;;;;5073541;28;20457;-64
2023/09/25 11:15:11;;;;;;;2.40;1.37;;;;;;;;;;5072171;28;20487;-64
2023/09/25 11:17:38;;;;;;;3.37;1.63;;;;;;;;;;5074207;28;20552;-64
2023/09/25 11:20:11;;;;;;;2.20;1.40;;;;;;;;;;5073682;28;20518;-64
2023/09/25 11:22:39;;;;;;;1.83;1.33;;;;;;;;;;5072970;28;21068;-64
2023/09/25 11:25:10;;;;;;;2.40;1.70;;;;;;;;;;5072527;28;20532;-64
2023/09/25 11:27:38;;;;;;;5.03;1.73;;;;;;;;;;5073202;28;20540;-64
2023/09/25 11:30:13;;;;;;;2.10;1.10;;;;;;;;;;5073689;28;20507;-65
2023/09/25 11:32:40;;;;;;;2.63;1.30;;;;;;;;;;5072956;28;20976;-65
2023/09/25 11:35:12;;;;;;;2.23;1.43;;;;;;;;;;5073451;28;20481;-64
2023/09/25 11:37:39;;;;;;;1.60;1.17;;;;;;;;;;5073598;28;20449;-69
2023/09/25 11:40:09;;;;;;;4.00;1.50;;;;;;;;;;5073165;28;20464;-63
2023/09/25 11:42:36;;;;;;;3.77;2.00;;;;;;;;;;5073199;28;20809;-64
2023/09/25 11:45:04;;;;;;;3.40;1.30;;;;;;;;;;5072278;28;20473;-65
2023/09/25 11:47:31;;;;;;;2.53;1.70;;;;;;;;;;5072662;28;20453;-63
2023/09/25 11:49:59;;;;;;;2.70;1.40;;;;;;;;;;5073109;28;20559;-64
2023/09/25 11:52:26;;;;;;;1.87;1.20;;;;;;;;;;5074028;28;20481;-64
2023/09/25 11:54:53;;;;;;;2.73;1.70;;;;;;;;;;5071396;28;20560;-63
2023/09/25 11:57:21;;;;;;;2.50;1.70;;;;;;;;;;5071981;28;20457;-63
2023/09/25 11:59:48;;;;;;;2.80;1.67;;;;;;;;;;5072445;28;20461;-64
2023/09/25 12:02:16;;;;;;;2.60;1.70;;;;;;;;;;5071234;28;20959;-64
2023/09/25 12:04:43;;;;;;;3.13;1.70;;;;;;;;;;5069561;28;20560;-63
2023/09/25 12:07:10;;;;;;;1.57;1.07;;;;;;;;;;5072739;28;20817;-63
2023/09/25 12:09:37;;;;;;;2.00;1.10;;;;;;;;;;5072816;28;20461;-64
2023/09/25 12:12:04;;;;;;;2.77;1.70;;;;;;;;;;5072938;28;20473;-63
2023/09/25 12:14:35;;;;;;;3.13;1.00;;;;;;;;;;5072588;28;20489;-63
2023/09/25 12:17:02;;;;;;;2.07;1.33;;;;;;;;;;5069560;28;20501;-63
2023/09/25 12:19:29;;;;;;;2.13;1.50;;;;;;;;;;5071788;28;20457;-64
2023/09/25 12:21:56;;;;;;;1.90;1.40;;;;;;;;;;5072428;28;20433;-63
2023/09/25 12:24:23;;;;;;;1.73;1.00;;;;;;;;;;5071600;28;20489;-64
2023/09/25 12:26:50;;;;;;;4.10;1.40;;;;;;;;;;5072734;28;20476;-64
2023/09/25 12:29:18;;;;;;;2.03;1.23;;;;;;;;;;5071945;28;20971;-63
2023/09/25 12:31:46;;;;;;;2.37;1.23;;;;;;;;;;5071908;28;20473;-64
2023/09/25 12:34:13;;;;;;;2.30;1.30;;;;;;;;;;5072326;28;20975;-64
2023/09/25 12:36:40;;;;;;;2.57;1.40;;;;;;;;;;5071533;28;20881;-63
2023/09/25 12:39:08;;;;;;;2.13;1.40;;;;;;;;;;5072393;28;20931;-63
2023/09/25 12:41:35;;;;;;;2.37;1.30;;;;;;;;;;5071022;28;20476;-64
2023/09/25 12:44:02;;;;;;;1.70;1.20;;;;;;;;;;5072144;28;20464;-64
2023/09/25 12:46:29;;;;;;;2.20;1.40;;;;;;;;;;5071051;28;20812;-62
2023/09/25 12:48:58;;;;;;;3.07;1.17;;;;;;;;;;5070716;28;20848;-63
2023/09/25 12:51:26;;;;;;;1.60;1.00;;;;;;;;;;5071516;28;20523;-63
2023/09/25 12:53:53;;;;;;;2.33;1.07;;;;;;;;;;5072124;28;20441;-63
2023/09/25 12:56:21;;;;;;;2.10;1.13;;;;;;;;;;5070609;28;20457;-64
2023/09/25 12:58:48;;;;;;;2.00;1.30;;;;;;;;;;5070277;28;20458;-64
2023/09/25 13:01:15;;;;;;;1.80;1.00;;;;;;;;;;5071209;28;20457;-63
2023/09/25 13:03:42;;;;;;;2.30;1.40;;;;;;;;;;5069860;28;20453;-63
2023/09/25 13:06:10;;;;;;;3.67;1.40;;;;;;;;;;5070923;28;20481;-63
2023/09/25 13:08:37;;;;;;;1.63;1.03;;;;;;;;;;5071984;28;20511;-63
2023/09/25 13:11:04;;;;;;;2.17;1.43;;;;;;;;;;5071210;28;20487;-63
2023/09/25 13:13:32;;;;;;;2.47;1.23;;;;;;;;;;5070401;28;20452;-63
2023/09/25 13:15:59;;;;;;;1.90;1.10;;;;;;;;;;5070691;28;20473;-63
2023/09/25 13:18:26;;;;;;;7.00;1.83;;;;;;;;;;5065528;28;20468;-64
2023/09/25 13:20:55;;;;;;;2.13;1.30;;;;;;;;;;5069709;28;20464;-63
2023/09/25 13:23:24;;;;;;;2.80;1.47;;;;;;;;;;5069593;28;20839;-63
2023/09/25 13:25:51;;;;;;;2.70;1.63;;;;;;;;;;5070410;28;21002;-62
2023/09/25 13:28:18;;;;;;;2.97;1.30;;;;;;;;;;5062026;28;20460;-62
2023/09/25 13:30:45;;;;;;;2.07;1.17;;;;;;;;;;5071620;28;20433;-62
2023/09/25 13:33:12;;;;;;;1.90;1.20;;;;;;;;;;5069455;28;20492;-63
2023/09/25 13:35:39;;;;;;;2.80;1.43;;;;;;;;;;5070607;28;20504;-63
2023/09/25 13:38:06;;;;;;;2.30;1.10;;;;;;;;;;5067387;28;20892;-63
2023/09/25 13:40:35;;;;;;;1.83;1.10;;;;;;;;;;5071461;28;20524;-63
2023/09/25 13:43:02;;;;;;;1.97;1.00;;;;;;;;;;5070619;28;20453;-63
2023/09/25 13:45:29;;;;;;;2.60;1.47;;;;;;;;;;5070666;28;20983;-63
2023/09/25 13:47:56;;;;;;;2.33;1.30;;;;;;;;;;5070113;28;20567;-63
2023/09/25 13:50:23;;;;;;;2.77;1.90;;;;;;;;;;5069396;28;20492;-63
2023/09/25 13:52:51;;;;;;;2.17;1.30;;;;;;;;;;5059598;28;20522;-63
2023/09/25 13:55:18;;;;;;;3.10;1.20;;;;;;;;;;5071463;28;20489;-63
2023/09/25 13:57:48;;;;;;;2.43;1.00;;;;;;;;;;5070621;28;20457;-63
2023/09/25 14:00:15;;;;;;;1.80;0.90;;;;;;;;;;5069461;28;20461;-63
2023/09/25 14:02:42;;;;;;;2.40;1.50;;;;;;;;;;5071253;28;20561;-63
2023/09/25 14:05:11;;;;;;;2.10;1.30;;;;;;;;;;5069844;28;20480;-63
2023/09/25 14:07:38;;;;;;;1.63;1.20;;;;;;;;;;5068945;28;20519;-63
2023/09/25 14:10:06;;;;;;;2.10;1.00;;;;;;;;;;5070233;28;20488;-63
2023/09/25 14:12:33;;;;;;;1.90;1.30;;;;;;;;;;5071400;28;20477;-63
2023/09/25 14:15:01;;;;;;;2.70;1.40;;;;;;;;;;5068754;28;20473;-63
2023/09/25 14:17:28;;;;;;;1.47;1.00;;;;;;;;;;5071522;28;20505;-63
2023/09/25 14:19:55;;;;;;;2.53;1.50;;;;;;;;;;5070548;28;20453;-63
2023/09/25 14:22:22;;;;;;;2.50;1.37;;;;;;;;;;5073745;28;20927;-63
2023/09/25 14:24:49;;;;;;;2.10;1.30;;;;;;;;;;5073971;28;20488;-63
2023/09/25 14:27:17;;;;;;;2.37;1.20;;;;;;;;;;5073303;28;20518;-63
2023/09/25 14:29:44;;;;;;;2.60;1.50;;;;;;;;;;5073160;28;20461;-63
2023/09/25 14:32:13;;;;;;;1.83;0.93;;;;;;;;;;5074907;28;20469;-63
2023/09/25 14:34:40;;;;;;;3.30;1.63;;;;;;;;;;5073528;28;20481;-63
2023/09/25 14:37:07;;;;;;;1.90;1.27;;;;;;;;;;5071887;28;20461;-63
2023/09/25 14:39:34;;;;;;;2.43;1.10;;;;;;;;;;5073261;28;20461;-62
2023/09/25 14:42:01;;;;;;;1.90;1.20;;;;;;;;;;5113403;22;20489;-64
2023/09/25 14:44:28;;;;;;;1.67;0.97;;;;;;;;;;5072919;28;20480;-63
2023/09/25 14:46:55;;;;;;;2.20;1.20;;;;;;;;;;5063279;28;20458;-64